Weather History for KCSQ - September, 2013

Change the Weather History Date:

Sunday, September 15, 2013

  Actual Average Record
Temperature  
Mean Temperature 64 °F -  
Max Temperature 68 °F 74 °F 95 °F (1955)
Min Temperature 60 °F 52 °F 33 °F (2007)
Degree Days  
Heating Degree Days 1    
Growing Degree Days 14 (Base 50)    
Moisture  
Dew Point 57 °F    
Average Humidity 79    
Maximum Humidity 94    
Minimum Humidity 60    
Precipitation  
Precipitation 0.58 in - - ()
Sea Level Pressure  
Sea Level Pressure 30.03 in    
Wind  
Wind Speed 10 mph (North)    
Max Wind Speed 18 mph    
Max Gust Speed 23 mph    
Visibility 10 miles    
Events Rain    
Averages and records for this station are not official NWS values.
T = Trace of Precipitation, MM = Missing Value Source: NWS Daily Summary

Daily Weather History Graph

Daily Weather History Graph

Search for Another Location

Airport or City:

Trip Planner

Search our weather history database for the weather conditions in past years. The results will help you decide how hot, cold, wet, or windy it might be!

Date:

Astronomy

Sep. 15, 2013 Rise Set
Actual Time 6:58 AM CDT 7:26 PM CDT
Civil Twilight 6:30 AM CDT 7:53 PM CDT
Nautical Twilight 5:58 AM CDT 8:26 PM CDT
Astronomical Twilight 5:24 AM CDT 8:59 PM CDT
Moon 4:55 PM CDT (9/15) 2:35 AM CDT (9/15)
Length of Visible Light 13h 23m
Length of Day
12h 27m
Waxing Gibbous, 82% of the Moon is Illuminated
Sep 15
Waxing Gibbous
Sep 19
Full
Sep 26
Last Quarter
Oct 4
New
Oct 11
First Quarter

Hourly Weather History & Observations

Time (CDT) Temp. Dew Point Humidity Pressure Visibility Wind Dir Wind Speed Gust Speed Precip Events Conditions
12:15 AM 66.2 °F 51.8 °F 60% 29.94 in 9.0 mi South 11.5 mph - N/A   Light Drizzle
12:35 AM 64.4 °F 51.8 °F 64% 29.93 in 10.0 mi South 12.7 mph - N/A   Mostly Cloudy
12:55 AM 66.2 °F 51.8 °F 60% 29.93 in 10.0 mi South 10.4 mph - N/A   Mostly Cloudy
1:15 AM 64.4 °F 51.8 °F 64% 29.93 in 10.0 mi South 10.4 mph 16.1 mph N/A   Scattered Clouds
1:35 AM 64.4 °F 51.8 °F 64% 29.93 in 10.0 mi South 10.4 mph - N/A   Partly Cloudy
1:55 AM 64.4 °F 51.8 °F 64% 29.92 in 10.0 mi South 11.5 mph - N/A   Partly Cloudy
2:15 AM 64.4 °F 51.8 °F 64% 29.92 in 10.0 mi South 11.5 mph - N/A   Mostly Cloudy
2:35 AM 64.4 °F 51.8 °F 64% 29.92 in 10.0 mi South 12.7 mph - N/A   Overcast
2:55 AM 64.4 °F 51.8 °F 64% 29.91 in 10.0 mi South 13.8 mph - N/A   Overcast
3:15 AM 64.4 °F 51.8 °F 64% 29.91 in 10.0 mi South 10.4 mph - N/A   Overcast
3:35 AM 62.6 °F 55.4 °F 77% 29.91 in 6.0 mi SSW 9.2 mph - N/A Rain Light Rain
3:55 AM 60.8 °F 55.4 °F 82% 29.92 in 5.0 mi SW 4.6 mph - 0.15 in Rain Light Rain
4:15 AM 62.6 °F 57.2 °F 82% 29.92 in 10.0 mi SSW 8.1 mph - N/A   Overcast
4:35 AM 60.8 °F 55.4 °F 82% 29.92 in 2.5 mi WNW 3.5 mph 11.5 mph N/A   Light Drizzle
4:55 AM 62.6 °F 57.2 °F 82% 29.92 in 10.0 mi SSW 5.8 mph - 0.13 in   Overcast
5:15 AM 60.8 °F 57.2 °F 88% 29.93 in 9.0 mi NNW 5.8 mph - N/A   Overcast
5:35 AM 60.8 °F 57.2 °F 88% 29.92 in 10.0 mi Calm Calm - N/A   Overcast
5:55 AM 60.8 °F 59.0 °F 94% 29.92 in 7.0 mi Calm Calm - 0.09 in Rain Light Rain
6:35 AM 60.8 °F 57.2 °F 88% 29.94 in 3.0 mi SW 5.8 mph - N/A Rain Light Rain
6:55 AM 60.8 °F 59.0 °F 94% 29.94 in 8.0 mi WSW 4.6 mph - 0.21 in Rain Light Rain
7:15 AM 60.8 °F 59.0 °F 94% 29.93 in 9.0 mi South 4.6 mph - N/A Rain Light Rain
7:35 AM 60.8 °F 59.0 °F 94% 29.94 in 4.0 mi South 6.9 mph - N/A Rain Light Rain
7:55 AM 60.8 °F 59.0 °F 94% 29.93 in 10.0 mi South 10.4 mph - N/A   Overcast
8:15 AM 62.6 °F 59.0 °F 88% 29.93 in 10.0 mi SSW 10.4 mph - N/A   Overcast
8:35 AM 62.6 °F 59.0 °F 88% 29.92 in 10.0 mi SSW 8.1 mph 16.1 mph N/A   Overcast
8:55 AM 62.6 °F 59.0 °F 88% 29.93 in 10.0 mi SW 9.2 mph - N/A   Overcast
9:15 AM 62.6 °F 60.8 °F 94% 29.94 in 10.0 mi SSW 6.9 mph - N/A   Overcast
9:35 AM 64.4 °F 60.8 °F 88% 29.96 in 10.0 mi SW 8.1 mph - N/A   Overcast
9:55 AM 64.4 °F 60.8 °F 88% 29.96 in 10.0 mi WSW 6.9 mph - N/A   Overcast
10:15 AM 66.2 °F 62.6 °F 88% 29.97 in 10.0 mi WSW 9.2 mph - N/A   Overcast
10:35 AM 66.2 °F 62.6 °F 88% 29.99 in 10.0 mi WSW 8.1 mph - N/A   Overcast
10:55 AM 66.2 °F 62.6 °F 88% 30.00 in 10.0 mi West 10.4 mph - N/A   Overcast
11:15 AM 66.2 °F 62.6 °F 88% 30.01 in 10.0 mi West 10.4 mph - N/A   Overcast
11:35 AM 66.2 °F 62.6 °F 88% 30.01 in 9.0 mi West 8.1 mph 15.0 mph N/A   Overcast
11:55 AM 66.2 °F 62.6 °F 88% 30.01 in 10.0 mi NW 10.4 mph - N/A   Overcast
12:15 PM 66.2 °F 62.6 °F 88% 30.00 in 10.0 mi NNW 10.4 mph - N/A   Overcast
12:35 PM 68.0 °F 62.6 °F 83% 30.01 in 10.0 mi NNW 10.4 mph 17.3 mph N/A   Overcast
12:55 PM 66.2 °F 60.8 °F 83% 30.02 in 10.0 mi North 15.0 mph 21.9 mph N/A   Overcast
1:15 PM 66.2 °F 60.8 °F 83% 30.02 in 10.0 mi North 16.1 mph - N/A   Light Drizzle
1:35 PM 66.2 °F 59.0 °F 78% 30.03 in 10.0 mi North 17.3 mph 23.0 mph N/A   Scattered Clouds
1:55 PM 66.2 °F 59.0 °F 78% 30.03 in 10.0 mi North 18.4 mph - N/A   Partly Cloudy
2:15 PM 66.2 °F 59.0 °F 78% 30.04 in 10.0 mi North 16.1 mph - N/A   Mostly Cloudy
2:35 PM 66.2 °F 59.0 °F 78% 30.05 in 10.0 mi North 12.7 mph 19.6 mph N/A   Overcast
2:55 PM 66.2 °F 57.2 °F 73% 30.05 in 10.0 mi North 13.8 mph - N/A   Overcast
3:15 PM 64.4 °F 57.2 °F 77% 30.06 in 10.0 mi North 16.1 mph 21.9 mph N/A   Overcast
3:35 PM 64.4 °F 57.2 °F 77% 30.08 in 10.0 mi North 12.7 mph 23.0 mph N/A   Overcast
3:55 PM 64.4 °F 57.2 °F 77% 30.09 in 10.0 mi North 15.0 mph 21.9 mph N/A   Overcast
4:15 PM 64.4 °F 57.2 °F 77% 30.10 in 10.0 mi North 12.7 mph 18.4 mph N/A   Overcast
4:35 PM 64.4 °F 55.4 °F 73% 30.10 in 10.0 mi NNE 15.0 mph 20.7 mph N/A   Overcast
4:55 PM 64.4 °F 55.4 °F 73% 30.10 in 10.0 mi North 15.0 mph - N/A   Overcast
5:15 PM 64.4 °F 55.4 °F 73% 30.10 in 10.0 mi NNE 13.8 mph - N/A   Overcast
5:35 PM 64.4 °F 55.4 °F 73% 30.11 in 10.0 mi NNE 15.0 mph 21.9 mph N/A   Overcast
5:55 PM 64.4 °F 55.4 °F 73% 30.11 in 10.0 mi NNE 16.1 mph 23.0 mph N/A   Overcast
6:15 PM 64.4 °F 55.4 °F 73% 30.11 in 10.0 mi NE 17.3 mph 23.0 mph N/A   Overcast
6:35 PM 64.4 °F 55.4 °F 73% 30.12 in 10.0 mi NE 15.0 mph 23.0 mph N/A   Overcast
6:55 PM 64.4 °F 55.4 °F 73% 30.14 in 10.0 mi NE 10.4 mph 17.3 mph N/A   Overcast
7:15 PM 62.6 °F 55.4 °F 77% 30.15 in 10.0 mi NNE 12.7 mph - N/A   Overcast
7:35 PM 62.6 °F 55.4 °F 77% 30.16 in 10.0 mi NNE 10.4 mph - N/A   Overcast
7:55 PM 62.6 °F 53.6 °F 72% 30.17 in 10.0 mi NE 10.4 mph 18.4 mph N/A   Overcast
8:15 PM 62.6 °F 55.4 °F 77% 30.18 in 10.0 mi NE 10.4 mph - N/A   Overcast
8:35 PM 62.6 °F 55.4 °F 77% 30.19 in 10.0 mi NE 6.9 mph - N/A   Overcast
8:55 PM 62.6 °F 53.6 °F 72% 30.20 in 10.0 mi NE 10.4 mph 18.4 mph N/A   Overcast
9:15 PM 62.6 °F 53.6 °F 72% 30.21 in 10.0 mi ENE 9.2 mph 16.1 mph N/A   Overcast
9:35 PM 62.6 °F 53.6 °F 72% 30.21 in 10.0 mi ENE 9.2 mph 16.1 mph N/A   Overcast
9:55 PM 60.8 °F 53.6 °F 77% 30.22 in 10.0 mi ENE 10.4 mph 18.4 mph N/A   Overcast
10:15 PM 60.8 °F 53.6 °F 77% 30.22 in 10.0 mi ENE 9.2 mph - N/A   Overcast
10:35 PM 60.8 °F 53.6 °F 77% 30.22 in 10.0 mi ENE 8.1 mph - N/A   Overcast
10:55 PM 60.8 °F 53.6 °F 77% 30.23 in 10.0 mi ENE 5.8 mph 12.7 mph N/A   Overcast
11:15 PM 60.8 °F 53.6 °F 77% 30.23 in 10.0 mi ENE 8.1 mph - N/A   Overcast
11:35 PM 60.8 °F 53.6 °F 77% 30.24 in 10.0 mi ENE 8.1 mph - N/A   Overcast
11:55 PM 60.8 °F 53.6 °F 77% 30.23 in 10.0 mi ENE 10.4 mph - N/A   Overcast